createdAt,value
2022-08-09T00:04:06.366Z,11.80
2022-08-09T00:09:17.940Z,11.80
2022-08-09T00:19:40.631Z,10.60
2022-08-09T00:24:50.142Z,10.60
2022-08-09T00:30:16.168Z,10.30
2022-08-09T00:35:14.587Z,10.20
2022-08-09T00:40:19.817Z,11.00
2022-08-09T00:45:22.037Z,10.60
2022-08-09T00:50:25.452Z,10.00
2022-08-09T00:55:54.212Z,9.60
2022-08-09T01:00:54.911Z,9.40
2022-08-09T01:06:17.608Z,10.60
2022-08-09T01:11:58.699Z,10.10
2022-08-09T01:17:11.758Z,9.80
2022-08-09T01:22:55.682Z,10.40
2022-08-09T01:27:59.891Z,12.00
2022-08-09T01:33:03.285Z,10.20
2022-08-09T01:38:15.325Z,10.10
2022-08-09T01:43:19.116Z,9.10
2022-08-09T01:48:29.784Z,8.80
2022-08-09T01:53:41.518Z,8.00
2022-08-09T01:58:48.965Z,8.40
2022-08-09T02:03:53.587Z,8.80
2022-08-09T02:09:06.884Z,9.10
2022-08-09T02:14:15.785Z,9.50
2022-08-09T02:19:38.912Z,10.10
2022-08-09T02:24:51.864Z,8.90
2022-08-09T02:29:57.977Z,10.50
2022-08-09T02:35:17.421Z,9.60
2022-08-09T02:40:27.110Z,8.70
2022-08-09T02:45:37.632Z,8.20
2022-08-09T02:50:51.900Z,8.60
2022-08-09T02:55:59.942Z,9.10
2022-08-09T03:01:06.175Z,10.10
2022-08-09T03:06:14.810Z,9.80
2022-08-09T03:11:30.132Z,8.90
2022-08-09T03:16:44.939Z,9.00
2022-08-09T03:21:51.578Z,9.30
2022-08-09T03:26:54.197Z,10.30
2022-08-09T03:32:00.413Z,10.00
2022-08-09T03:37:29.236Z,9.40
2022-08-09T03:42:28.838Z,7.90
2022-08-09T03:47:36.685Z,9.00
2022-08-09T03:52:46.060Z,7.80
2022-08-09T03:57:57.474Z,7.70
2022-08-09T04:03:19.596Z,7.80
2022-08-09T04:08:28.917Z,8.60
2022-08-09T04:14:37.214Z,8.20
2022-08-09T04:18:54.619Z,7.60
2022-08-09T04:23:57.713Z,8.30
2022-08-09T04:29:03.676Z,8.00
2022-08-09T04:34:11.865Z,7.50
2022-08-09T04:39:14.594Z,7.20
2022-08-09T04:44:16.799Z,6.60
2022-08-09T04:49:30.223Z,7.20
2022-08-09T04:54:41.373Z,6.60
2022-08-09T04:59:43.846Z,7.20
2022-08-09T05:04:55.255Z,6.20
2022-08-09T05:10:01.174Z,6.30
2022-08-09T05:15:11.871Z,6.80
2022-08-09T05:20:29.534Z,6.10
2022-08-09T05:25:45.741Z,7.10
2022-08-09T05:30:59.687Z,7.00
2022-08-09T05:36:11.722Z,6.90
2022-08-09T05:41:18.791Z,6.10
2022-08-09T05:46:20.934Z,6.20
2022-08-09T05:51:42.269Z,6.10
2022-08-09T05:56:54.699Z,6.20
2022-08-09T06:01:59.045Z,6.90
2022-08-09T06:07:01.695Z,6.60
2022-08-09T06:12:04.221Z,6.30
2022-08-09T06:17:09.298Z,6.20
2022-08-09T06:22:15.400Z,6.10
2022-08-09T06:27:18.213Z,5.50
2022-08-09T06:33:00.857Z,5.10
2022-08-09T06:37:53.346Z,5.40
2022-08-09T06:43:04.104Z,5.70
2022-08-09T06:48:09.936Z,5.50
2022-08-09T06:53:38.245Z,5.00
2022-08-09T07:00:49.824Z,5.00
2022-08-09T07:04:04.356Z,7.30
2022-08-09T07:09:07.529Z,5.40
2022-08-09T07:14:29.800Z,4.20
2022-08-09T07:19:42.353Z,3.90
2022-08-09T07:24:49.214Z,3.90
2022-08-09T07:29:51.920Z,2.90
2022-08-09T07:34:58.816Z,2.90
2022-08-09T07:40:00.961Z,3.10
2022-08-09T07:45:22.597Z,3.10
2022-08-09T07:50:52.730Z,2.10
2022-08-09T07:56:03.624Z,1.90
2022-08-09T08:01:11.370Z,2.10
2022-08-09T08:06:14.326Z,2.20
2022-08-09T08:12:10.983Z,2.10
2022-08-09T08:16:51.078Z,1.90
2022-08-09T08:22:04.869Z,2.10
2022-08-09T08:27:16.589Z,2.10
2022-08-09T08:32:41.686Z,2.50
2022-08-09T08:38:02.043Z,1.60
2022-08-09T08:43:13.635Z,1.40
2022-08-09T08:48:16.860Z,2.00
2022-08-09T08:53:22.376Z,2.10
2022-08-09T08:58:27.381Z,2.60
2022-08-09T09:03:37.582Z,1.60
2022-08-09T09:08:43.041Z,1.80
2022-08-09T09:13:55.736Z,1.60
2022-08-09T09:19:37.044Z,2.60
2022-08-09T09:24:29.059Z,1.80
2022-08-09T09:29:58.111Z,1.90
2022-08-09T09:35:09.930Z,1.70
2022-08-09T09:40:13.074Z,1.30
2022-08-09T09:45:26.281Z,2.00
2022-08-09T09:50:49.575Z,1.20
2022-08-09T09:56:05.557Z,1.50
2022-08-09T10:01:36.758Z,1.70
2022-08-09T10:06:46.758Z,2.00
2022-08-09T10:12:07.742Z,1.80
2022-08-09T10:17:50.489Z,1.30
2022-08-09T10:22:44.009Z,1.20
2022-08-09T10:27:56.685Z,1.90
2022-08-09T10:34:04.981Z,1.80
2022-08-09T10:39:03.325Z,1.80
2022-08-09T10:44:24.967Z,1.50
2022-08-09T10:49:50.829Z,1.60
2022-08-09T10:55:28.749Z,1.50
2022-08-09T11:01:10.909Z,1.40
2022-08-09T11:06:24.729Z,2.20
2022-08-09T11:11:55.683Z,2.10
2022-08-09T11:16:58.692Z,1.70
2022-08-09T11:22:16.558Z,2.00
2022-08-09T11:28:04.669Z,1.90
2022-08-09T11:33:07.913Z,1.80
2022-08-09T11:38:32.472Z,1.90
2022-08-09T11:43:35.764Z,1.90
2022-08-09T11:48:52.828Z,1.40
2022-08-09T11:54:27.733Z,1.20
2022-08-09T11:59:33.629Z,1.70
2022-08-09T12:04:38.130Z,1.60
2022-08-09T12:09:50.937Z,1.50
2022-08-09T12:15:07.323Z,1.70
2022-08-09T12:20:22.177Z,1.70
2022-08-09T12:25:36.582Z,1.70
2022-08-09T12:30:40.029Z,1.80
2022-08-09T12:35:42.862Z,1.90
2022-08-09T12:40:51.759Z,1.70
2022-08-09T12:45:59.568Z,2.50
2022-08-09T12:51:03.950Z,2.50
2022-08-09T12:56:39.225Z,1.70
2022-08-09T13:02:09.672Z,2.40
2022-08-09T13:07:16.889Z,2.40
2022-08-09T13:12:22.355Z,2.30
2022-08-09T13:18:03.480Z,2.30
2022-08-09T13:23:05.539Z,1.80
2022-08-09T13:28:18.992Z,1.80
2022-08-09T13:33:53.194Z,2.30
2022-08-09T13:38:59.847Z,1.50
2022-08-09T13:44:05.311Z,1.70
2022-08-09T13:49:18.272Z,1.40
2022-08-09T13:54:20.678Z,1.60
2022-08-09T13:59:27.915Z,1.60
2022-08-09T14:04:59.291Z,1.60
2022-08-09T14:10:01.755Z,1.40
2022-08-09T14:15:19.677Z,1.80
2022-08-09T14:20:49.306Z,1.70
2022-08-09T14:26:05.858Z,1.60
2022-08-09T14:31:12.338Z,3.60
2022-08-09T14:36:20.265Z,1.70
2022-08-09T14:41:34.748Z,1.60
2022-08-09T14:47:03.085Z,2.20
2022-08-09T14:52:05.198Z,2.00
2022-08-09T14:57:08.059Z,2.00
2022-08-09T15:02:10.323Z,1.80
2022-08-09T15:07:14.620Z,1.40
2022-08-09T15:12:19.172Z,1.50
2022-08-09T15:17:22.924Z,1.80
2022-08-09T15:22:27.457Z,1.70
2022-08-09T15:27:29.496Z,1.30
2022-08-09T15:32:52.658Z,1.80
2022-08-09T15:38:11.789Z,2.10
2022-08-09T15:43:14.349Z,1.80
2022-08-09T15:48:28.753Z,1.70
2022-08-09T15:59:00.785Z,1.70
2022-08-09T16:04:04.554Z,1.80
2022-08-09T16:09:06.764Z,1.80
2022-08-09T16:14:09.155Z,1.70
2022-08-09T16:19:13.442Z,1.70
2022-08-09T16:24:32.864Z,1.50
2022-08-09T16:29:37.342Z,1.50
2022-08-09T16:34:55.910Z,1.50
2022-08-09T16:40:04.648Z,1.60
2022-08-09T16:45:08.644Z,1.70
2022-08-09T16:50:29.251Z,1.80
2022-08-09T16:55:59.951Z,3.10
2022-08-09T17:00:55.557Z,3.00
2022-08-09T17:06:31.727Z,2.10
2022-08-09T17:11:40.591Z,2.30
2022-08-09T17:16:49.098Z,2.30
2022-08-09T17:21:55.471Z,2.40
2022-08-09T17:26:58.506Z,2.40
2022-08-09T17:32:02.081Z,2.40
2022-08-09T17:37:04.804Z,2.20
2022-08-09T17:42:07.354Z,2.60
2022-08-09T17:47:30.099Z,2.40
2022-08-09T17:52:34.029Z,2.40
2022-08-09T17:58:04.049Z,2.40
2022-08-09T18:02:58.964Z,3.50
2022-08-09T18:08:01.145Z,3.30
2022-08-09T18:13:40.798Z,3.10
2022-08-09T18:18:32.800Z,2.90
2022-08-09T18:24:09.447Z,4.50
2022-08-09T18:30:38.838Z,4.90
2022-08-09T18:34:19.230Z,4.20
2022-08-09T18:44:34.776Z,3.10
2022-08-09T18:49:43.215Z,3.00
2022-08-09T18:54:52.129Z,3.60
2022-08-09T19:00:01.671Z,4.20
2022-08-09T19:05:20.437Z,3.60
2022-08-09T19:10:37.280Z,4.00
2022-08-09T19:15:40.476Z,4.20
2022-08-09T19:20:42.715Z,5.40
2022-08-09T19:26:02.051Z,5.60
2022-08-09T19:31:07.885Z,4.90
2022-08-09T19:36:11.831Z,5.20
2022-08-09T19:41:33.295Z,5.80
2022-08-09T19:46:50.298Z,5.80
2022-08-09T19:51:57.078Z,5.70
2022-08-09T19:56:59.162Z,5.60
2022-08-09T20:02:05.323Z,6.00
2022-08-09T20:07:15.931Z,5.90
2022-08-09T20:12:27.211Z,5.10
2022-08-09T20:17:41.601Z,5.90
2022-08-09T20:22:51.077Z,4.50
2022-08-09T20:27:58.445Z,6.20
2022-08-09T20:33:02.589Z,7.20
2022-08-09T20:38:22.171Z,7.80
2022-08-09T20:43:31.331Z,6.60
2022-08-09T20:48:33.273Z,8.30
2022-08-09T20:53:38.846Z,7.30
2022-08-09T20:58:43.463Z,7.60
2022-08-09T21:04:08.181Z,7.30
2022-08-09T21:09:13.442Z,6.30
2022-08-09T21:14:22.873Z,6.30
2022-08-09T21:20:19.096Z,6.60
2022-08-09T21:25:07.740Z,7.10
2022-08-09T21:30:11.662Z,6.90
2022-08-09T21:35:15.101Z,8.20
2022-08-09T21:40:19.484Z,7.70
2022-08-09T21:45:32.784Z,8.20
2022-08-09T21:50:51.605Z,8.10
2022-08-09T21:55:59.931Z,7.80
2022-08-09T22:01:11.653Z,6.40
2022-08-09T22:06:28.061Z,7.10
2022-08-09T22:12:06.815Z,6.80
2022-08-09T22:16:51.882Z,7.40
2022-08-09T22:21:53.739Z,8.10
2022-08-09T22:26:57.540Z,8.90
2022-08-09T22:31:59.693Z,8.00
2022-08-09T22:37:01.852Z,9.20
2022-08-09T22:42:21.276Z,7.50
2022-08-09T22:48:16.875Z,9.90
2022-08-09T22:52:49.133Z,11.30
2022-08-09T22:57:59.797Z,10.00
2022-08-09T23:03:13.067Z,10.00
2022-08-09T23:08:33.570Z,14.80
2022-08-09T23:13:36.190Z,10.90
2022-08-09T23:18:38.568Z,11.70
2022-08-09T23:23:41.064Z,12.10
2022-08-09T23:28:42.928Z,12.50
2022-08-09T23:33:44.912Z,13.70
2022-08-09T23:38:49.255Z,11.90
2022-08-09T23:43:51.457Z,14.50
2022-08-09T23:48:58.460Z,13.80
2022-08-09T23:54:02.020Z,11.70
2022-08-09T23:59:18.482Z,10.60
